Time;durP1;ratioP1;P1;durP2;ratioP2;P2;SDS_P1;SDS_P2;PMS_P1;PMS_P2;Temp;Humidity;BMP_temperature;BMP_pressure;BME280_temperature;BME280_humidity;BME280_pressure;Samples;Min_cycle;Max_cycle;Signal;HPM_P1;HPM_P2
2022/09/28 00:01:36;;;;;;;2.07;1.83;;;13.20;60.90;;;;;;5055176;28;20452;-90
2022/09/28 00:04:04;;;;;;;2.63;1.77;;;13.20;62.00;;;;;;5069063;28;20461;-88
2022/09/28 00:06:32;;;;;;;1.97;1.83;;;13.00;61.90;;;;;;5074080;28;20452;-88
2022/09/28 00:09:00;;;;;;;2.60;1.90;;;13.00;62.20;;;;;;5061844;28;20883;-88
2022/09/28 00:11:28;;;;;;;2.33;1.80;;;13.00;62.30;;;;;;5075583;28;20533;-88
2022/09/28 00:13:56;;;;;;;1.50;1.40;;;13.10;62.30;;;;;;5059585;28;20464;-88
2022/09/28 00:16:26;;;;;;;3.90;1.73;;;13.10;61.70;;;;;;5079650;28;20452;-88
2022/09/28 00:18:53;;;;;;;1.83;1.53;;;12.80;62.20;;;;;;5078070;28;20777;-88
2022/09/28 00:21:23;;;;;;;1.40;1.30;;;12.80;63.10;;;;;;5073971;28;20463;-89
2022/09/28 00:26:39;;;;;;;1.93;1.30;;;13.30;60.90;;;;;;5065849;28;20857;-88
2022/09/28 00:29:07;;;;;;;1.80;1.30;;;13.50;60.60;;;;;;5078936;28;20460;-89
2022/09/28 00:31:35;;;;;;;1.37;1.00;;;13.50;59.90;;;;;;5057617;28;20436;-88
2022/09/28 00:34:04;;;;;;;1.50;1.40;;;13.10;60.40;;;;;;5064037;28;20580;-88
2022/09/28 00:36:33;;;;;;;4.10;1.63;;;13.20;61.20;;;;;;5065411;28;20517;-88
2022/09/28 00:39:05;;;;;;;2.13;1.40;;;13.20;60.40;;;;;;5051595;28;20448;-89
2022/09/28 00:41:32;;;;;;;1.87;1.60;;;13.40;60.90;;;;;;5074562;28;20811;-88
2022/09/28 00:44:33;;;;;;;3.50;1.40;;;13.60;60.30;;;;;;5058821;28;20476;-89
2022/09/28 00:47:05;;;;;;;2.60;1.60;;;13.60;60.00;;;;;;5068778;28;20898;-89
2022/09/28 00:49:36;;;;;;;3.90;1.23;;;13.70;60.80;;;;;;5041526;28;20437;-88
2022/09/28 00:52:05;;;;;;;2.93;1.13;;;13.50;59.80;;;;;;5064621;28;20463;-90
2022/09/28 00:54:34;;;;;;;1.50;1.40;;;13.60;60.50;;;;;;5075415;28;20570;-86
2022/09/28 00:57:02;;;;;;;1.73;1.23;;;13.70;60.60;;;;;;5063713;28;20464;-89
2022/09/28 00:59:30;;;;;;;1.20;1.10;;;13.80;60.60;;;;;;5054334;28;20462;-88
2022/09/28 01:01:57;;;;;;;3.77;1.73;;;13.90;60.00;;;;;;5073692;28;20451;-88
2022/09/28 01:04:24;;;;;;;1.63;1.40;;;13.60;60.40;;;;;;5055840;28;20475;-86
2022/09/28 01:06:52;;;;;;;4.53;1.80;;;13.60;61.20;;;;;;5052457;28;20979;-89
2022/09/28 01:09:20;;;;;;;2.87;1.80;;;13.70;60.80;;;;;;5058252;28;20457;-87
2022/09/28 01:11:48;;;;;;;6.97;1.67;;;13.70;60.20;;;;;;5071931;28;20532;-86
2022/09/28 01:14:16;;;;;;;2.90;2.00;;;13.80;61.00;;;;;;5049119;28;20483;-88
2022/09/28 01:16:52;;;;;;;3.03;2.00;;;13.90;61.00;;;;;;5072583;28;21050;-87
2022/09/28 01:19:57;;;;;;;2.13;1.50;;;14.10;60.80;;;;;;5072866;28;20452;-88
2022/09/28 01:22:32;;;;;;;3.30;1.67;;;14.20;60.60;;;;;;5006965;28;20476;-87
2022/09/28 01:25:07;;;;;;;2.47;1.50;;;14.30;60.60;;;;;;5072058;28;20550;-87
2022/09/28 01:27:39;;;;;;;1.73;1.60;;;14.20;59.80;;;;;;5064400;28;20991;-88
2022/09/28 01:30:08;;;;;;;2.93;1.23;;;14.10;60.40;;;;;;5042146;28;20456;-88
2022/09/28 01:32:43;;;;;;;2.27;1.40;;;14.10;60.20;;;;;;5057376;28;20454;-87
2022/09/28 01:35:14;;;;;;;3.17;1.20;;;14.00;60.50;;;;;;5057003;28;20831;-87
2022/09/28 01:37:58;;;;;;;1.67;1.23;;;14.00;60.30;;;;;;5063834;28;20449;-87
2022/09/28 01:40:28;;;;;;;2.70;1.60;;;13.70;60.10;;;;;;5072722;28;20452;-88
2022/09/28 01:43:01;;;;;;;2.70;1.40;;;13.50;61.70;;;;;;5046404;28;20709;-86
2022/09/28 01:45:32;;;;;;;2.93;1.40;;;13.60;62.20;;;;;;5038887;28;20456;-86
2022/09/28 01:48:03;;;;;;;1.40;1.30;;;13.70;62.10;;;;;;5040430;28;20462;-86
2022/09/28 01:50:36;;;;;;;1.83;1.70;;;13.60;61.30;;;;;;5053466;28;20948;-87
2022/09/28 01:53:09;;;;;;;4.73;1.67;;;13.20;62.80;;;;;;5072210;28;20475;-85
2022/09/28 01:55:39;;;;;;;1.83;1.57;;;13.20;63.50;;;;;;5042831;28;20447;-86
2022/09/28 01:58:14;;;;;;;1.10;1.00;;;13.10;62.80;;;;;;5057827;28;20479;-86
2022/09/28 02:00:46;;;;;;;2.33;1.40;;;13.10;63.70;;;;;;5055868;28;20944;-86
2022/09/28 02:03:19;;;;;;;2.20;1.60;;;13.10;63.90;;;;;;5057039;28;20844;-86
2022/09/28 02:05:57;;;;;;;1.40;1.30;;;13.20;63.00;;;;;;5044497;28;20968;-87
2022/09/28 02:08:31;;;;;;;2.07;1.13;;;13.00;64.30;;;;;;5072702;28;20436;-86
2022/09/28 02:11:03;;;;;;;1.37;1.27;;;13.10;64.50;;;;;;5079800;28;20451;-87
2022/09/28 02:13:34;;;;;;;1.67;1.40;;;13.10;64.30;;;;;;5055544;28;20561;-87
2022/09/28 02:16:04;;;;;;;1.47;1.37;;;13.10;64.10;;;;;;5073124;28;20467;-86
2022/09/28 02:18:32;;;;;;;1.20;1.00;;;13.00;63.80;;;;;;5072429;28;20789;-86
2022/09/28 02:21:04;;;;;;;1.53;1.43;;;12.80;64.70;;;;;;5054206;28;20538;-89
2022/09/28 02:23:38;;;;;;;1.17;1.07;;;12.70;65.80;;;;;;5038365;28;20790;-86
2022/09/28 02:26:11;;;;;;;1.30;1.20;;;12.90;64.80;;;;;;5046561;28;20451;-87
2022/09/28 02:28:40;;;;;;;1.50;1.40;;;12.90;65.60;;;;;;5057821;28;20459;-88
2022/09/28 02:31:07;;;;;;;1.37;1.03;;;13.10;64.90;;;;;;5059893;28;20471;-88
2022/09/28 02:33:38;;;;;;;2.10;2.00;;;13.10;63.70;;;;;;5051223;28;20487;-86
2022/09/28 02:36:06;;;;;;;1.97;1.23;;;13.00;64.20;;;;;;5070140;28;20478;-88
2022/09/28 02:38:38;;;;;;;2.40;1.40;;;13.00;65.40;;;;;;5055892;28;20480;-87
2022/09/28 02:41:11;;;;;;;4.67;1.50;;;13.10;64.40;;;;;;5061347;28;20467;-89
2022/09/28 02:43:49;;;;;;;1.60;1.20;;;13.10;63.70;;;;;;5054808;28;20975;-87
2022/09/28 02:46:28;;;;;;;1.30;1.20;;;13.20;64.30;;;;;;5058457;28;21012;-87
2022/09/28 02:49:15;;;;;;;2.47;1.47;;;13.30;63.20;;;;;;5047105;28;20455;-87
2022/09/28 02:51:52;;;;;;;3.33;1.40;;;13.20;64.00;;;;;;5047529;28;20959;-87
2022/09/28 02:54:37;;;;;;;3.00;2.80;;;13.20;64.20;;;;;;5066654;28;21056;-87
2022/09/28 02:57:21;;;;;;;1.57;1.30;;;13.40;64.30;;;;;;5061500;28;20532;-87
2022/09/28 02:59:59;;;;;;;1.40;1.13;;;13.70;63.40;;;;;;5045249;28;20781;-87
2022/09/28 03:02:31;;;;;;;3.00;1.10;;;13.90;62.60;;;;;;5047533;28;20448;-88
2022/09/28 03:05:19;;;;;;;2.10;1.10;;;14.00;61.90;;;;;;5041049;28;20867;-87
2022/09/28 03:07:54;;;;;;;1.40;1.30;;;14.00;61.80;;;;;;5057633;28;20455;-88
2022/09/28 03:10:28;;;;;;;2.23;1.07;;;14.20;61.90;;;;;;5062438;28;20974;-87
2022/09/28 03:12:56;;;;;;;1.13;1.03;;;14.30;61.40;;;;;;5050751;28;20441;-87
2022/09/28 03:15:26;;;;;;;1.23;0.80;;;14.40;61.30;;;;;;5068084;28;20480;-88
2022/09/28 03:17:55;;;;;;;1.90;1.10;;;14.50;61.00;;;;;;5059440;28;20495;-87
2022/09/28 03:20:22;;;;;;;2.10;1.60;;;14.30;60.80;;;;;;5071221;28;20470;-88
2022/09/28 03:22:49;;;;;;;2.33;1.30;;;14.40;60.90;;;;;;5051718;28;20634;-87
2022/09/28 03:25:16;;;;;;;1.47;1.37;;;14.30;60.60;;;;;;5061778;28;20465;-86
2022/09/28 03:27:44;;;;;;;1.50;1.40;;;14.30;60.30;;;;;;5047109;28;21002;-88
2022/09/28 03:30:13;;;;;;;3.50;1.30;;;14.20;61.50;;;;;;5058776;28;20481;-87
2022/09/28 03:32:44;;;;;;;1.63;1.30;;;14.10;61.10;;;;;;5034897;28;20445;-88
2022/09/28 03:35:11;;;;;;;3.10;1.77;;;14.10;61.00;;;;;;5069601;28;20481;-87
2022/09/28 03:37:38;;;;;;;2.07;1.83;;;14.00;61.70;;;;;;5068490;28;21831;-87
2022/09/28 03:40:06;;;;;;;4.43;1.30;;;13.70;62.80;;;;;;5057924;28;20445;-87
2022/09/28 03:42:36;;;;;;;2.23;1.37;;;13.70;63.10;;;;;;5046411;28;20452;-87
2022/09/28 03:45:04;;;;;;;1.90;1.03;;;13.80;62.50;;;;;;5067333;28;20467;-87
2022/09/28 03:47:31;;;;;;;1.37;1.27;;;13.90;62.70;;;;;;5089401;28;20448;-86
2022/09/28 03:50:00;;;;;;;1.10;1.00;;;14.00;62.50;;;;;;5059477;28;20452;-87
2022/09/28 03:52:28;;;;;;;2.60;1.40;;;14.20;62.40;;;;;;5076740;28;20455;-87
2022/09/28 03:54:55;;;;;;;2.80;1.00;;;14.30;61.90;;;;;;5074023;28;20513;-87
2022/09/28 03:57:22;;;;;;;1.33;1.00;;;14.40;61.50;;;;;;5053515;28;20829;-87
2022/09/28 03:59:49;;;;;;;1.20;1.10;;;14.40;61.30;;;;;;5057739;28;21138;-87
2022/09/28 04:02:16;;;;;;;1.63;1.00;;;14.40;60.90;;;;;;5056311;28;20948;-87
2022/09/28 04:04:43;;;;;;;1.40;1.00;;;14.20;61.40;;;;;;5071647;28;20483;-87
2022/09/28 04:07:11;;;;;;;1.27;1.00;;;14.00;62.80;;;;;;5064447;28;20440;-87
2022/09/28 04:09:38;;;;;;;1.30;1.20;;;13.90;62.70;;;;;;5045942;28;20448;-86
2022/09/28 04:12:06;;;;;;;1.77;1.07;;;14.00;63.20;;;;;;5071720;28;20461;-87
2022/09/28 04:14:33;;;;;;;3.80;3.50;;;13.70;63.40;;;;;;5052757;28;20471;-86
2022/09/28 04:17:00;;;;;;;2.47;2.27;;;13.80;63.20;;;;;;5061109;28;20455;-86
2022/09/28 04:19:28;;;;;;;1.60;1.50;;;13.80;63.80;;;;;;5067722;28;20541;-86
2022/09/28 04:22:23;;;;;;;2.13;1.30;;;13.70;64.00;;;;;;5041016;28;20444;-86
2022/09/28 04:24:50;;;;;;;0.93;0.83;;;13.90;64.20;;;;;;5069519;28;20475;-86
2022/09/28 04:30:03;;;;;;;1.47;1.37;;;14.10;62.90;;;;;;5072168;28;20602;-86
2022/09/28 04:32:31;;;;;;;0.80;0.70;;;14.00;63.50;;;;;;5070676;28;20449;-87
2022/09/28 04:34:59;;;;;;;2.07;1.20;;;13.90;63.50;;;;;;5060196;28;20484;-86
2022/09/28 04:37:30;;;;;;;2.30;1.00;;;14.10;63.40;;;;;;5072419;28;20538;-87
2022/09/28 04:39:57;;;;;;;1.40;1.00;;;14.20;62.70;;;;;;5076650;28;21064;-89
2022/09/28 04:42:23;;;;;;;1.40;0.80;;;14.20;62.70;;;;;;5055322;28;20967;-89
2022/09/28 04:44:51;;;;;;;1.90;0.90;;;14.20;62.60;;;;;;5077046;28;20459;-86
2022/09/28 04:47:18;;;;;;;1.10;0.90;;;14.10;62.60;;;;;;5038928;28;20460;-86
2022/09/28 04:50:08;;;;;;;1.30;1.20;;;13.80;63.60;;;;;;5068561;28;22953;-87
2022/09/28 04:52:57;;;;;;;2.60;2.47;;;13.80;64.40;;;;;;5068952;28;20488;-87
2022/09/28 04:55:23;;;;;;;1.47;0.93;;;13.80;64.70;;;;;;5071443;28;20535;-86
2022/09/28 04:57:50;;;;;;;1.13;1.03;;;13.60;65.10;;;;;;5068499;28;21156;-87
2022/09/28 05:00:17;;;;;;;2.00;1.50;;;13.70;65.40;;;;;;5067180;28;20448;-88
2022/09/28 05:02:57;;;;;;;2.40;2.20;;;13.70;65.20;;;;;;5067964;28;20445;-87
2022/09/28 05:05:56;;;;;;;1.97;1.87;;;13.90;65.30;;;;;;5068241;28;20483;-87
2022/09/28 05:08:40;;;;;;;3.00;1.57;;;14.10;64.70;;;;;;5059957;28;20449;-88
2022/09/28 05:11:10;;;;;;;1.67;1.57;;;14.30;64.00;;;;;;5058823;28;20956;-86
2022/09/28 05:13:41;;;;;;;1.47;1.13;;;14.50;63.90;;;;;;5052736;28;20477;-88
2022/09/28 05:16:09;;;;;;;1.50;1.40;;;14.60;63.30;;;;;;5046504;28;21250;-87
2022/09/28 05:18:54;;;;;;;1.50;1.40;;;14.60;63.10;;;;;;5053921;28;20439;-87
2022/09/28 05:21:23;;;;;;;3.73;1.30;;;14.50;62.40;;;;;;5056666;28;21039;-86
2022/09/28 05:23:54;;;;;;;1.30;1.20;;;14.50;62.50;;;;;;5068405;28;21127;-86
2022/09/28 05:26:22;;;;;;;3.40;2.70;;;14.40;62.60;;;;;;5057719;28;20506;-88
2022/09/28 05:28:49;;;;;;;1.60;1.50;;;14.10;62.70;;;;;;5069981;28;20452;-89
2022/09/28 05:31:22;;;;;;;2.80;2.00;;;14.00;63.20;;;;;;5059477;28;20445;-87
2022/09/28 05:34:09;;;;;;;1.53;1.43;;;13.90;63.10;;;;;;5050055;28;21102;-88
2022/09/28 05:36:38;;;;;;;1.20;1.10;;;13.70;63.70;;;;;;5057884;28;20942;-88
2022/09/28 05:39:06;;;;;;;1.20;1.10;;;13.80;63.10;;;;;;5078856;28;20601;-87
2022/09/28 05:41:34;;;;;;;1.10;0.90;;;13.70;63.20;;;;;;5060125;28;21002;-87
2022/09/28 05:44:01;;;;;;;1.20;1.10;;;13.60;62.70;;;;;;5053218;28;21010;-87
2022/09/28 05:46:30;;;;;;;1.50;1.40;;;13.70;63.00;;;;;;5067659;28;20456;-88
2022/09/28 05:49:00;;;;;;;1.70;1.30;;;13.70;62.80;;;;;;5053793;28;20449;-87
2022/09/28 05:51:27;;;;;;;4.20;1.50;;;13.90;62.50;;;;;;5070210;28;20458;-88
2022/09/28 05:53:55;;;;;;;1.40;1.30;;;14.10;62.30;;;;;;5055251;28;20492;-88
2022/09/28 05:56:24;;;;;;;2.13;1.80;;;14.20;61.90;;;;;;5040108;28;20440;-89
2022/09/28 05:58:52;;;;;;;2.63;2.43;;;14.30;61.30;;;;;;5069093;28;20456;-88
2022/09/28 06:01:21;;;;;;;1.90;1.80;;;14.30;61.60;;;;;;5064092;28;20526;-87
2022/09/28 06:03:49;;;;;;;1.27;1.17;;;14.30;60.80;;;;;;5042632;28;20464;-86
2022/09/28 06:06:16;;;;;;;2.53;1.33;;;14.30;60.70;;;;;;5055198;28;20567;-87
2022/09/28 06:08:47;;;;;;;1.27;1.03;;;14.40;61.10;;;;;;5061530;28;21135;-88
2022/09/28 06:11:34;;;;;;;1.50;1.40;;;14.40;60.00;;;;;;5072469;28;20535;-87
2022/09/28 06:14:19;;;;;;;1.73;1.53;;;14.40;60.10;;;;;;5071927;28;20477;-87
2022/09/28 06:16:47;;;;;;;1.30;1.20;;;14.40;60.10;;;;;;5072646;28;20501;-87
2022/09/28 06:19:14;;;;;;;2.27;2.07;;;14.50;60.20;;;;;;5079805;28;20457;-88
2022/09/28 06:22:07;;;;;;;2.83;2.63;;;14.50;60.20;;;;;;5077652;28;20955;-88
2022/09/28 06:24:42;;;;;;;4.63;3.40;;;14.60;60.00;;;;;;5055978;28;20460;-88
2022/09/28 06:27:10;;;;;;;3.23;2.93;;;14.60;60.10;;;;;;5072792;28;20899;-87
2022/09/28 06:29:37;;;;;;;4.17;2.47;;;14.50;60.00;;;;;;5069935;28;20501;-87
2022/09/28 06:32:06;;;;;;;1.83;1.20;;;14.50;60.40;;;;;;5053417;28;20451;-88
2022/09/28 06:34:33;;;;;;;2.60;1.70;;;14.50;59.60;;;;;;5053981;28;21139;-88
2022/09/28 06:37:03;;;;;;;2.40;1.40;;;14.40;60.40;;;;;;5079532;28;20827;-88
2022/09/28 06:39:30;;;;;;;1.67;1.30;;;14.50;60.20;;;;;;5040605;28;20475;-88
2022/09/28 06:42:03;;;;;;;2.90;1.47;;;14.50;60.40;;;;;;5072189;28;20452;-87
2022/09/28 06:44:51;;;;;;;1.33;1.20;;;14.50;60.80;;;;;;5071477;28;21014;-87
2022/09/28 06:47:24;;;;;;;1.57;1.47;;;14.40;60.70;;;;;;5044537;28;20497;-88
2022/09/28 06:50:11;;;;;;;1.90;1.77;;;14.20;59.90;;;;;;5071597;28;20860;-88
2022/09/28 06:52:58;;;;;;;3.43;1.40;;;14.10;60.90;;;;;;5054030;28;20576;-88
2022/09/28 06:55:47;;;;;;;3.00;1.50;;;13.90;61.30;;;;;;5060898;28;20948;-89
2022/09/28 06:58:16;;;;;;;1.50;1.40;;;13.80;61.60;;;;;;5062025;28;20513;-87
2022/09/28 07:00:44;;;;;;;1.50;1.30;;;13.80;62.40;;;;;;5057549;28;20439;-89
2022/09/28 07:03:12;;;;;;;2.03;1.57;;;13.80;61.20;;;;;;5070731;28;20460;-89
2022/09/28 07:05:58;;;;;;;2.03;1.93;;;13.80;61.60;;;;;;5071860;28;20815;-87
2022/09/28 07:08:44;;;;;;;1.83;1.50;;;13.70;61.70;;;;;;5052966;28;20473;-87
2022/09/28 07:11:28;;;;;;;2.97;1.20;;;13.80;61.90;;;;;;5057006;28;20453;-87
2022/09/28 07:14:23;;;;;;;1.90;1.80;;;13.90;61.50;;;;;;5071612;28;20844;-90
2022/09/28 07:16:54;;;;;;;1.80;1.43;;;14.00;60.80;;;;;;5056172;28;20456;-88
2022/09/28 07:19:21;;;;;;;2.60;1.20;;;14.10;60.80;;;;;;5064412;28;20439;-87
2022/09/28 07:21:53;;;;;;;1.37;1.27;;;14.20;61.40;;;;;;5063487;28;20551;-88
2022/09/28 07:24:21;;;;;;;1.53;1.43;;;14.40;60.90;;;;;;5036621;28;20472;-87
2022/09/28 07:27:12;;;;;;;1.53;1.40;;;14.60;61.00;;;;;;5064166;28;20445;-88
2022/09/28 07:30:07;;;;;;;1.93;1.67;;;14.70;61.00;;;;;;5067906;28;20490;-88
2022/09/28 07:32:45;;;;;;;3.53;1.80;;;14.60;59.40;;;;;;5057646;28;20462;-87
2022/09/28 07:35:29;;;;;;;1.63;1.53;;;14.50;59.70;;;;;;5060688;28;20472;-89
2022/09/28 07:38:00;;;;;;;1.20;1.10;;;14.60;59.90;;;;;;5074470;28;20443;-89
2022/09/28 07:43:12;;;;;;;1.60;1.00;;;14.60;59.90;;;;;;5060140;28;20987;-89
2022/09/28 07:45:40;;;;;;;1.40;1.30;;;14.70;60.40;;;;;;5076748;28;20451;-89
2022/09/28 07:48:08;;;;;;;1.80;1.63;;;14.90;60.00;;;;;;5058355;28;20551;-90
2022/09/28 07:50:58;;;;;;;1.90;1.53;;;15.00;59.90;;;;;;5074100;28;20439;-90
2022/09/28 07:53:54;;;;;;;7.37;3.47;;;15.10;59.20;;;;;;5074507;28;20487;-90
2022/09/28 07:56:40;;;;;;;2.20;2.10;;;15.10;59.60;;;;;;5070873;28;20558;-89
2022/09/28 07:59:31;;;;;;;1.73;1.00;;;15.20;59.60;;;;;;5068864;28;20799;-89
2022/09/28 08:02:27;;;;;;;2.33;1.37;;;15.30;59.30;;;;;;5048398;28;20440;-89
2022/09/28 08:04:57;;;;;;;1.60;1.50;;;15.10;58.60;;;;;;5064087;28;21066;-89
2022/09/28 08:07:24;;;;;;;1.27;1.17;;;14.90;57.70;;;;;;5046060;28;20476;-88
2022/09/28 08:09:59;;;;;;;2.03;1.30;;;14.60;57.70;;;;;;5055047;28;20435;-89
2022/09/28 08:12:26;;;;;;;1.90;1.80;;;14.80;58.90;;;;;;5068592;28;20448;-88
2022/09/28 08:15:03;;;;;;;2.30;2.10;;;14.60;58.70;;;;;;5056992;28;20463;-90
2022/09/28 08:17:57;;;;;;;2.50;1.53;;;14.60;59.00;;;;;;5056226;28;20463;-89
2022/09/28 08:23:10;;;;;;;3.17;1.60;;;15.00;58.20;;;;;;5059756;28;21032;-90
2022/09/28 08:25:38;;;;;;;2.30;1.80;;;14.80;57.30;;;;;;5041328;28;20968;-88
2022/09/28 08:28:06;;;;;;;2.47;1.63;;;14.70;58.40;;;;;;5063456;28;20447;-89
2022/09/28 08:30:37;;;;;;;1.80;1.60;;;14.90;58.60;;;;;;5062993;28;20448;-89
2022/09/28 08:33:20;;;;;;;1.40;1.07;;;14.90;59.50;;;;;;5057042;28;20452;-90
2022/09/28 08:35:55;;;;;;;1.93;1.73;;;15.00;57.90;;;;;;5060026;28;20455;-89
2022/09/28 08:38:31;;;;;;;1.90;1.73;;;14.80;58.30;;;;;;5062410;28;21206;-92
2022/09/28 08:41:35;;;;;;;1.90;1.77;;;14.90;59.20;;;;;;5058632;28;20484;-90
2022/09/28 08:44:34;;;;;;;3.50;2.00;;;15.00;58.10;;;;;;5078864;28;20498;-90
2022/09/28 08:47:06;;;;;;;1.70;1.57;;;15.00;58.20;;;;;;5064687;28;20444;-89
2022/09/28 08:50:13;;;;;;;1.73;1.63;;;14.80;56.80;;;;;;5037157;28;20439;-91
2022/09/28 08:53:18;;;;;;;5.20;1.40;;;14.80;57.30;;;;;;5070992;28;20807;-88
2022/09/28 08:56:02;;;;;;;1.37;1.20;;;14.60;57.60;;;;;;5071629;28;20467;-89
2022/09/28 08:58:35;;;;;;;2.13;1.37;;;14.50;58.00;;;;;;5037032;28;20451;-89
2022/09/28 09:01:06;;;;;;;3.20;1.60;;;14.40;57.00;;;;;;5080787;28;20443;-89
2022/09/28 09:03:35;;;;;;;6.27;1.60;;;14.40;55.70;;;;;;5058143;28;20469;-90
2022/09/28 09:06:36;;;;;;;1.53;1.43;;;14.40;55.90;;;;;;5075808;28;20440;-90
2022/09/28 09:09:32;;;;;;;2.80;1.70;;;14.20;57.20;;;;;;5082885;28;20522;-89
2022/09/28 09:12:12;;;;;;;1.83;1.70;;;14.40;58.40;;;;;;5063140;28;20451;-90
2022/09/28 09:14:59;;;;;;;1.93;1.60;;;14.70;58.40;;;;;;5051670;28;20490;-91
2022/09/28 09:17:36;;;;;;;2.10;1.50;;;14.80;57.60;;;;;;5047853;28;20447;-90
2022/09/28 09:20:18;;;;;;;2.00;1.50;;;15.00;57.80;;;;;;5044632;28;20452;-90
2022/09/28 09:23:00;;;;;;;1.87;1.10;;;15.10;57.30;;;;;;5066675;28;20975;-89
2022/09/28 09:25:40;;;;;;;2.63;1.30;;;15.10;55.50;;;;;;5060317;28;20456;-89
2022/09/28 09:28:31;;;;;;;1.40;1.30;;;15.10;56.10;;;;;;5074328;28;20444;-91
2022/09/28 09:31:09;;;;;;;1.37;1.27;;;15.10;55.90;;;;;;5048007;28;20459;-88
2022/09/28 09:33:58;;;;;;;2.60;1.67;;;15.00;56.40;;;;;;5056953;28;20846;-89
2022/09/28 09:37:15;;;;;;;4.67;1.33;;;15.00;55.90;;;;;;5031127;28;20556;-90
2022/09/28 09:40:17;;;;;;;1.50;1.40;;;15.10;56.00;;;;;;5075801;28;20445;-89
2022/09/28 09:43:30;;;;;;;4.97;2.03;;;15.20;55.40;;;;;;5057718;28;20508;-91
2022/09/28 09:46:22;;;;;;;2.80;1.57;;;15.10;52.90;;;;;;5063902;28;20444;-89
2022/09/28 09:49:20;;;;;;;1.63;1.40;;;15.10;54.40;;;;;;5065073;28;20859;-89
2022/09/28 09:51:53;;;;;;;1.67;1.40;;;14.90;54.00;;;;;;5050479;28;20452;-89
2022/09/28 09:54:26;;;;;;;5.87;1.40;;;15.00;54.70;;;;;;5059172;28;20476;-89
2022/09/28 09:56:58;;;;;;;2.33;1.40;;;14.90;54.60;;;;;;5055090;28;20598;-90
2022/09/28 10:00:02;;;;;;;3.67;1.20;;;14.90;56.60;;;;;;5076579;28;21460;-90
2022/09/28 10:02:47;;;;;;;1.20;1.10;;;14.80;55.80;;;;;;5058439;28;20443;-90
2022/09/28 10:05:40;;;;;;;5.83;2.50;;;14.90;55.60;;;;;;5066159;28;20448;-90
2022/09/28 10:08:15;;;;;;;2.10;1.90;;;15.00;54.70;;;;;;5040355;28;20451;-88
2022/09/28 10:10:48;;;;;;;4.13;2.07;;;14.80;53.70;;;;;;5073457;28;20942;-89
2022/09/28 10:13:17;;;;;;;1.60;1.50;;;14.80;54.70;;;;;;5075944;28;20451;-90
2022/09/28 10:15:49;;;;;;;3.90;1.73;;;14.80;54.10;;;;;;5080339;28;21049;-90
2022/09/28 10:18:30;;;;;;;4.47;1.10;;;15.00;55.10;;;;;;5056802;28;20540;-90
2022/09/28 10:21:18;;;;;;;1.50;1.10;;;15.00;54.40;;;;;;5069501;28;20473;-89
2022/09/28 10:23:54;;;;;;;1.50;1.27;;;15.30;53.90;;;;;;5069285;28;20459;-90
2022/09/28 10:26:26;;;;;;;1.50;1.07;;;15.40;54.00;;;;;;5068837;28;20444;-89
2022/09/28 10:28:57;;;;;;;1.40;1.13;;;15.60;53.60;;;;;;5071691;28;20458;-90
2022/09/28 10:31:38;;;;;;;1.50;1.20;;;15.70;52.70;;;;;;5086876;28;20471;-89
2022/09/28 10:34:12;;;;;;;1.17;1.07;;;15.70;52.00;;;;;;5059084;28;20464;-89
2022/09/28 10:36:48;;;;;;;1.20;1.10;;;15.60;52.30;;;;;;5061116;28;20459;-90
2022/09/28 10:39:31;;;;;;;2.33;1.63;;;15.40;53.10;;;;;;5080467;28;20723;-89
2022/09/28 10:42:02;;;;;;;1.90;1.17;;;15.40;52.10;;;;;;5079629;28;20464;-90
2022/09/28 10:44:32;;;;;;;1.30;1.10;;;15.50;52.50;;;;;;5068696;28;20510;-89
2022/09/28 10:47:20;;;;;;;1.03;0.93;;;15.30;52.60;;;;;;5036478;28;20856;-90
2022/09/28 10:49:49;;;;;;;1.30;1.10;;;15.40;52.30;;;;;;5047969;28;20460;-90
2022/09/28 10:52:37;;;;;;;1.37;1.00;;;15.40;52.80;;;;;;5058122;28;20443;-88
2022/09/28 10:55:26;;;;;;;4.50;1.47;;;15.60;52.20;;;;;;5057889;28;20472;-91
2022/09/28 10:57:54;;;;;;;1.20;1.10;;;15.50;52.00;;;;;;5053233;28;20444;-89
2022/09/28 11:00:39;;;;;;;1.30;1.00;;;15.60;52.60;;;;;;5047820;28;20447;-90
2022/09/28 11:03:23;;;;;;;3.83;1.63;;;15.60;52.70;;;;;;5054312;28;20509;-89
2022/09/28 11:05:56;;;;;;;4.10;1.40;;;15.50;53.40;;;;;;5077676;28;20510;-90
2022/09/28 11:08:28;;;;;;;7.67;4.83;;;15.70;53.60;;;;;;5067917;28;20514;-92
2022/09/28 11:11:13;;;;;;;4.83;3.50;;;15.80;52.50;;;;;;5045696;28;20827;-92
2022/09/28 11:13:46;;;;;;;2.50;1.07;;;15.80;52.90;;;;;;5051999;28;20550;-90
2022/09/28 11:16:25;;;;;;;4.93;3.43;;;15.90;52.90;;;;;;5042183;28;21120;-90
2022/09/28 11:18:55;;;;;;;1.10;1.00;;;15.90;50.80;;;;;;5039703;28;20455;-91
2022/09/28 11:21:25;;;;;;;2.17;2.07;;;15.90;50.20;;;;;;5060507;28;20917;-90
2022/09/28 11:24:05;;;;;;;2.87;2.67;;;15.90;50.80;;;;;;5037440;28;20475;-91
2022/09/28 11:26:41;;;;;;;3.60;2.33;;;15.80;49.80;;;;;;5055229;28;20445;-90
2022/09/28 11:29:26;;;;;;;1.67;1.10;;;15.80;51.40;;;;;;5058808;28;20448;-90
2022/09/28 11:32:12;;;;;;;6.73;4.53;;;16.00;51.80;;;;;;5056662;28;20432;-89
2022/09/28 11:35:00;;;;;;;1.00;0.90;;;16.40;51.60;;;;;;5035599;28;21076;-90
2022/09/28 11:37:45;;;;;;;1.03;0.93;;;16.50;49.90;;;;;;5061407;28;20475;-89
2022/09/28 11:40:24;;;;;;;0.97;0.87;;;16.50;50.00;;;;;;5049473;28;20448;-89
2022/09/28 11:43:03;;;;;;;2.87;1.07;;;16.50;48.80;;;;;;5059520;28;20627;-90
2022/09/28 11:45:44;;;;;;;2.00;1.83;;;16.40;49.40;;;;;;5069644;28;20461;-91
2022/09/28 11:48:14;;;;;;;1.00;0.87;;;16.30;49.00;;;;;;5043847;28;20489;-87
2022/09/28 11:50:47;;;;;;;4.10;1.27;;;16.10;48.10;;;;;;5073044;28;20948;-90
2022/09/28 11:53:22;;;;;;;1.60;1.13;;;16.10;48.70;;;;;;5040891;28;20452;-89
2022/09/28 11:55:59;;;;;;;3.00;1.20;;;16.00;49.30;;;;;;5062251;28;20463;-92
2022/09/28 11:58:31;;;;;;;1.13;1.03;;;16.20;49.90;;;;;;5058894;28;20448;-89
2022/09/28 12:01:04;;;;;;;6.40;1.00;;;16.30;49.80;;;;;;5050693;28;20448;-89
2022/09/28 12:03:49;;;;;;;1.43;0.97;;;16.50;48.60;;;;;;5065430;28;20479;-89
2022/09/28 12:06:23;;;;;;;0.80;0.80;;;16.50;47.60;;;;;;5065402;28;20859;-90
2022/09/28 12:08:54;;;;;;;1.63;0.90;;;16.50;48.50;;;;;;5040348;28;20458;-90
2022/09/28 12:11:51;;;;;;;2.60;0.90;;;16.60;48.90;;;;;;5056882;28;20575;-89
2022/09/28 12:14:26;;;;;;;1.27;1.00;;;16.30;47.10;;;;;;5055355;28;20597;-89
2022/09/28 12:16:58;;;;;;;5.50;1.50;;;16.30;49.40;;;;;;5035721;28;20456;-90
2022/09/28 12:19:31;;;;;;;4.60;1.47;;;16.30;47.70;;;;;;5059823;28;20673;-90
2022/09/28 12:22:02;;;;;;;3.77;1.73;;;16.40;47.10;;;;;;5072167;28;20535;-89
2022/09/28 12:24:33;;;;;;;3.23;1.70;;;16.30;47.60;;;;;;5070267;28;20993;-89
2022/09/28 12:27:06;;;;;;;4.10;1.33;;;16.00;48.60;;;;;;5080457;28;20455;-89
2022/09/28 12:29:40;;;;;;;2.67;1.30;;;16.10;48.30;;;;;;5073366;28;20801;-90
2022/09/28 12:32:16;;;;;;;1.30;1.00;;;16.20;47.20;;;;;;5046875;28;20989;-89
2022/09/28 12:34:43;;;;;;;1.83;1.27;;;16.20;47.60;;;;;;5058129;28;20464;-90
2022/09/28 12:37:33;;;;;;;1.33;0.90;;;16.40;47.90;;;;;;5047372;28;20463;-90
2022/09/28 12:40:38;;;;;;;1.90;1.30;;;16.40;47.70;;;;;;5081163;28;20958;-89
2022/09/28 12:43:33;;;;;;;3.23;0.93;;;16.50;47.80;;;;;;5061670;28;20469;-91
2022/09/28 12:46:16;;;;;;;1.20;0.73;;;16.60;47.30;;;;;;5070160;28;20450;-89
2022/09/28 12:48:57;;;;;;;1.37;0.90;;;16.70;48.00;;;;;;5062288;28;20447;-89
2022/09/28 12:51:40;;;;;;;1.13;1.03;;;17.00;47.30;;;;;;5070741;28;20445;-90
2022/09/28 12:54:23;;;;;;;1.30;1.00;;;17.00;46.40;;;;;;5072809;28;20472;-89
2022/09/28 12:57:01;;;;;;;3.33;1.50;;;17.00;47.10;;;;;;5071777;28;20480;-90
2022/09/28 12:59:32;;;;;;;2.03;0.93;;;17.10;46.50;;;;;;5060433;28;20476;-90
2022/09/28 13:02:30;;;;;;;1.33;1.23;;;17.00;46.30;;;;;;5057452;28;20552;-89
2022/09/28 13:05:33;;;;;;;1.30;1.10;;;17.10;47.50;;;;;;5061511;28;21209;-89
2022/09/28 13:08:07;;;;;;;0.97;0.90;;;17.40;45.70;;;;;;5040155;28;20435;-90
2022/09/28 13:10:41;;;;;;;1.60;1.10;;;17.60;44.90;;;;;;5073149;28;20506;-89
2022/09/28 13:13:29;;;;;;;1.00;0.80;;;17.80;44.90;;;;;;5046493;28;20505;-89
2022/09/28 13:16:00;;;;;;;1.30;1.20;;;17.60;44.20;;;;;;5054999;28;20441;-90
2022/09/28 13:18:33;;;;;;;1.87;0.90;;;17.60;45.00;;;;;;5069089;28;20460;-90
2022/09/28 13:21:09;;;;;;;5.37;1.20;;;17.50;45.80;;;;;;5072288;28;20445;-90
2022/09/28 13:23:41;;;;;;;1.00;0.90;;;17.70;44.20;;;;;;5064530;28;20750;-89
2022/09/28 13:26:17;;;;;;;1.20;1.10;;;17.90;44.10;;;;;;5045693;28;20803;-89
2022/09/28 13:28:46;;;;;;;1.23;0.83;;;18.00;42.80;;;;;;5072913;28;20463;-89
2022/09/28 13:31:18;;;;;;;0.80;0.63;;;18.10;44.00;;;;;;5072601;28;20471;-89
2022/09/28 13:33:47;;;;;;;1.83;1.10;;;18.40;43.60;;;;;;5075960;28;20718;-89
2022/09/28 13:36:44;;;;;;;6.23;1.00;;;18.70;43.70;;;;;;5055039;28;20451;-89
2022/09/28 13:39:47;;;;;;;1.00;0.87;;;18.50;43.20;;;;;;5003647;28;20665;-89
2022/09/28 13:42:28;;;;;;;1.03;0.93;;;18.60;42.80;;;;;;5054234;28;20453;-90
2022/09/28 13:45:09;;;;;;;1.07;0.97;;;18.50;43.00;;;;;;5072192;28;21081;-90